sensor_id;sensor_type;location;lat;lon;timestamp;temperature;humidity
49413;DHT22;35493;50.276;9.372;2024-02-04T00:00:24;9.30;90.10
49413;DHT22;35493;50.276;9.372;2024-02-04T00:02:58;9.30;90.10
49413;DHT22;35493;50.276;9.372;2024-02-04T00:05:31;9.30;90.10
49413;DHT22;35493;50.276;9.372;2024-02-04T00:08:04;9.30;90.10
49413;DHT22;35493;50.276;9.372;2024-02-04T00:10:31;9.30;90.10
49413;DHT22;35493;50.276;9.372;2024-02-04T00:13:04;9.30;90.00
49413;DHT22;35493;50.276;9.372;2024-02-04T00:15:38;9.30;90.00
49413;DHT22;35493;50.276;9.372;2024-02-04T00:18:12;9.30;90.10
49413;DHT22;35493;50.276;9.372;2024-02-04T00:20:39;9.30;90.10
49413;DHT22;35493;50.276;9.372;2024-02-04T00:23:12;9.30;90.10
49413;DHT22;35493;50.276;9.372;2024-02-04T00:25:52;9.30;90.10
49413;DHT22;35493;50.276;9.372;2024-02-04T00:28:25;9.30;90.20
49413;DHT22;35493;50.276;9.372;2024-02-04T00:31:00;9.30;90.10
49413;DHT22;35493;50.276;9.372;2024-02-04T00:33:34;9.30;90.10
49413;DHT22;35493;50.276;9.372;2024-02-04T00:36:07;9.20;90.30
49413;DHT22;35493;50.276;9.372;2024-02-04T00:38:40;9.30;90.40
49413;DHT22;35493;50.276;9.372;2024-02-04T00:41:13;9.30;90.40
49413;DHT22;35493;50.276;9.372;2024-02-04T00:43:40;9.30;90.40
49413;DHT22;35493;50.276;9.372;2024-02-04T00:46:14;9.30;90.50
49413;DHT22;35493;50.276;9.372;2024-02-04T00:48:41;9.30;90.50
49413;DHT22;35493;50.276;9.372;2024-02-04T00:51:14;9.20;90.70
49413;DHT22;35493;50.276;9.372;2024-02-04T00:53:49;9.20;90.80
49413;DHT22;35493;50.276;9.372;2024-02-04T00:56:22;9.30;90.80
49413;DHT22;35493;50.276;9.372;2024-02-04T00:58:55;9.20;90.90
49413;DHT22;35493;50.276;9.372;2024-02-04T01:01:29;9.20;90.90
49413;DHT22;35493;50.276;9.372;2024-02-04T01:04:03;9.20;91.20
49413;DHT22;35493;50.276;9.372;2024-02-04T01:06:39;9.20;91.30
49413;DHT22;35493;50.276;9.372;2024-02-04T01:09:18;9.20;91.40
49413;DHT22;35493;50.276;9.372;2024-02-04T01:11:51;9.20;91.30
49413;DHT22;35493;50.276;9.372;2024-02-04T01:14:18;9.20;91.40
49413;DHT22;35493;50.276;9.372;2024-02-04T01:16:52;9.20;91.50
49413;DHT22;35493;50.276;9.372;2024-02-04T01:19:25;9.20;91.50
49413;DHT22;35493;50.276;9.372;2024-02-04T01:21:59;9.20;91.50
49413;DHT22;35493;50.276;9.372;2024-02-04T01:24:33;9.20;91.40
49413;DHT22;35493;50.276;9.372;2024-02-04T01:27:13;9.20;91.60
49413;DHT22;35493;50.276;9.372;2024-02-04T01:29:46;9.20;91.50
49413;DHT22;35493;50.276;9.372;2024-02-04T01:32:20;9.20;91.60
49413;DHT22;35493;50.276;9.372;2024-02-04T01:34:54;9.10;91.60
49413;DHT22;35493;50.276;9.372;2024-02-04T01:37:27;9.20;91.50
49413;DHT22;35493;50.276;9.372;2024-02-04T01:40:00;9.20;91.40
49413;DHT22;35493;50.276;9.372;2024-02-04T01:42:34;9.20;91.50
49413;DHT22;35493;50.276;9.372;2024-02-04T01:45:07;9.20;91.50
49413;DHT22;35493;50.276;9.372;2024-02-04T01:47:42;9.20;91.60
49413;DHT22;35493;50.276;9.372;2024-02-04T01:50:09;9.10;91.50
49413;DHT22;35493;50.276;9.372;2024-02-04T01:52:42;9.20;91.40
49413;DHT22;35493;50.276;9.372;2024-02-04T01:55:16;9.20;91.40
49413;DHT22;35493;50.276;9.372;2024-02-04T01:57:50;9.20;91.40
49413;DHT22;35493;50.276;9.372;2024-02-04T02:00:23;9.20;91.40
49413;DHT22;35493;50.276;9.372;2024-02-04T02:02:57;9.10;91.40
49413;DHT22;35493;50.276;9.372;2024-02-04T02:05:32;9.20;91.40
49413;DHT22;35493;50.276;9.372;2024-02-04T02:08:05;9.10;91.40
49413;DHT22;35493;50.276;9.372;2024-02-04T02:10:39;9.10;91.40
49413;DHT22;35493;50.276;9.372;2024-02-04T02:13:16;9.10;91.50
49413;DHT22;35493;50.276;9.372;2024-02-04T02:15:51;9.20;91.40
49413;DHT22;35493;50.276;9.372;2024-02-04T02:18:27;9.10;91.30
49413;DHT22;35493;50.276;9.372;2024-02-04T02:21:13;9.20;91.40
49413;DHT22;35493;50.276;9.372;2024-02-04T02:23:52;9.10;91.30
49413;DHT22;35493;50.276;9.372;2024-02-04T02:26:27;9.10;91.30
49413;DHT22;35493;50.276;9.372;2024-02-04T02:29:01;9.10;91.30
49413;DHT22;35493;50.276;9.372;2024-02-04T02:31:34;9.20;91.20
49413;DHT22;35493;50.276;9.372;2024-02-04T02:34:07;9.10;91.30
49413;DHT22;35493;50.276;9.372;2024-02-04T02:36:42;9.10;91.30
49413;DHT22;35493;50.276;9.372;2024-02-04T02:39:17;9.10;91.20
49413;DHT22;35493;50.276;9.372;2024-02-04T02:41:54;9.10;91.10
49413;DHT22;35493;50.276;9.372;2024-02-04T02:44:28;9.20;91.10
49413;DHT22;35493;50.276;9.372;2024-02-04T02:47:01;9.10;91.10
49413;DHT22;35493;50.276;9.372;2024-02-04T02:49:35;9.10;91.10
49413;DHT22;35493;50.276;9.372;2024-02-04T02:52:08;9.20;91.10
49413;DHT22;35493;50.276;9.372;2024-02-04T02:54:41;9.10;91.20
49413;DHT22;35493;50.276;9.372;2024-02-04T02:57:15;9.10;91.30
49413;DHT22;35493;50.276;9.372;2024-02-04T02:59:49;9.10;91.30
49413;DHT22;35493;50.276;9.372;2024-02-04T03:02:22;9.10;91.40
49413;DHT22;35493;50.276;9.372;2024-02-04T03:04:55;9.10;91.40
49413;DHT22;35493;50.276;9.372;2024-02-04T03:07:28;9.10;91.50
49413;DHT22;35493;50.276;9.372;2024-02-04T03:10:01;9.10;91.50
49413;DHT22;35493;50.276;9.372;2024-02-04T03:12:35;9.10;91.50
49413;DHT22;35493;50.276;9.372;2024-02-04T03:15:09;9.10;91.60
49413;DHT22;35493;50.276;9.372;2024-02-04T03:17:42;9.10;91.50
49413;DHT22;35493;50.276;9.372;2024-02-04T03:20:15;9.10;91.50
49413;DHT22;35493;50.276;9.372;2024-02-04T03:22:48;9.10;91.40
49413;DHT22;35493;50.276;9.372;2024-02-04T03:25:21;9.10;91.50
49413;DHT22;35493;50.276;9.372;2024-02-04T03:27:57;9.10;91.50
49413;DHT22;35493;50.276;9.372;2024-02-04T03:30:30;9.10;91.60
49413;DHT22;35493;50.276;9.372;2024-02-04T03:33:03;9.10;91.60
49413;DHT22;35493;50.276;9.372;2024-02-04T03:35:38;9.10;91.70
49413;DHT22;35493;50.276;9.372;2024-02-04T03:38:11;9.10;91.80
49413;DHT22;35493;50.276;9.372;2024-02-04T03:40:44;9.10;91.90
49413;DHT22;35493;50.276;9.372;2024-02-04T03:43:18;9.00;92.00
49413;DHT22;35493;50.276;9.372;2024-02-04T03:45:52;9.10;92.10
49413;DHT22;35493;50.276;9.372;2024-02-04T03:48:25;9.00;92.20
49413;DHT22;35493;50.276;9.372;2024-02-04T03:50:58;9.00;92.20
49413;DHT22;35493;50.276;9.372;2024-02-04T03:53:38;9.00;92.30
49413;DHT22;35493;50.276;9.372;2024-02-04T03:56:11;9.00;92.20
49413;DHT22;35493;50.276;9.372;2024-02-04T03:58:45;9.00;92.30
49413;DHT22;35493;50.276;9.372;2024-02-04T04:01:19;9.00;92.30
49413;DHT22;35493;50.276;9.372;2024-02-04T04:03:52;9.00;92.30
49413;DHT22;35493;50.276;9.372;2024-02-04T04:06:25;9.00;92.30
49413;DHT22;35493;50.276;9.372;2024-02-04T04:08:58;9.00;92.40
49413;DHT22;35493;50.276;9.372;2024-02-04T04:11:31;9.00;92.30
49413;DHT22;35493;50.276;9.372;2024-02-04T04:14:05;9.00;92.30
49413;DHT22;35493;50.276;9.372;2024-02-04T04:16:39;8.90;92.40
49413;DHT22;35493;50.276;9.372;2024-02-04T04:19:12;9.00;92.40
49413;DHT22;35493;50.276;9.372;2024-02-04T04:21:39;9.00;92.40
49413;DHT22;35493;50.276;9.372;2024-02-04T04:24:13;9.00;92.50
49413;DHT22;35493;50.276;9.372;2024-02-04T04:26:47;9.00;92.40
49413;DHT22;35493;50.276;9.372;2024-02-04T04:29:21;9.00;92.40
49413;DHT22;35493;50.276;9.372;2024-02-04T04:31:55;8.90;92.40
49413;DHT22;35493;50.276;9.372;2024-02-04T04:34:28;9.00;92.40
49413;DHT22;35493;50.276;9.372;2024-02-04T04:37:01;9.00;92.50
49413;DHT22;35493;50.276;9.372;2024-02-04T04:39:34;9.00;92.30
49413;DHT22;35493;50.276;9.372;2024-02-04T04:42:07;9.00;92.40
49413;DHT22;35493;50.276;9.372;2024-02-04T04:44:41;9.00;92.40
49413;DHT22;35493;50.276;9.372;2024-02-04T04:47:15;9.00;92.40
49413;DHT22;35493;50.276;9.372;2024-02-04T04:49:48;9.00;92.50
49413;DHT22;35493;50.276;9.372;2024-02-04T04:52:21;9.00;92.40
49413;DHT22;35493;50.276;9.372;2024-02-04T04:54:54;9.00;92.50
49413;DHT22;35493;50.276;9.372;2024-02-04T04:57:27;9.00;92.50
49413;DHT22;35493;50.276;9.372;2024-02-04T05:00:02;9.00;92.50
49413;DHT22;35493;50.276;9.372;2024-02-04T05:02:39;9.00;92.50
49413;DHT22;35493;50.276;9.372;2024-02-04T05:05:12;9.00;92.60
49413;DHT22;35493;50.276;9.372;2024-02-04T05:07:45;9.00;92.60
49413;DHT22;35493;50.276;9.372;2024-02-04T05:10:19;9.00;92.70
49413;DHT22;35493;50.276;9.372;2024-02-04T05:12:52;9.00;92.70
49413;DHT22;35493;50.276;9.372;2024-02-04T05:15:26;9.00;92.60
49413;DHT22;35493;50.276;9.372;2024-02-04T05:18:01;9.00;92.60
49413;DHT22;35493;50.276;9.372;2024-02-04T05:20:35;9.00;92.60
49413;DHT22;35493;50.276;9.372;2024-02-04T05:23:08;9.00;92.60
49413;DHT22;35493;50.276;9.372;2024-02-04T05:25:41;9.00;92.70
49413;DHT22;35493;50.276;9.372;2024-02-04T05:28:14;9.00;92.70
49413;DHT22;35493;50.276;9.372;2024-02-04T05:30:48;8.90;92.60
49413;DHT22;35493;50.276;9.372;2024-02-04T05:33:22;9.00;92.70
49413;DHT22;35493;50.276;9.372;2024-02-04T05:35:49;9.00;92.60
49413;DHT22;35493;50.276;9.372;2024-02-04T05:38:22;9.00;92.60
49413;DHT22;35493;50.276;9.372;2024-02-04T05:40:55;9.00;92.70
49413;DHT22;35493;50.276;9.372;2024-02-04T05:43:28;8.90;92.70
49413;DHT22;35493;50.276;9.372;2024-02-04T05:46:03;9.00;92.60
49413;DHT22;35493;50.276;9.372;2024-02-04T05:48:36;8.90;92.60
49413;DHT22;35493;50.276;9.372;2024-02-04T05:51:09;9.00;92.60
49413;DHT22;35493;50.276;9.372;2024-02-04T05:53:42;9.00;92.60
49413;DHT22;35493;50.276;9.372;2024-02-04T05:56:15;9.00;92.60
49413;DHT22;35493;50.276;9.372;2024-02-04T05:58:48;9.00;92.60
49413;DHT22;35493;50.276;9.372;2024-02-04T06:01:22;9.00;92.60
49413;DHT22;35493;50.276;9.372;2024-02-04T06:03:56;8.90;92.60
49413;DHT22;35493;50.276;9.372;2024-02-04T06:06:29;8.90;92.60
49413;DHT22;35493;50.276;9.372;2024-02-04T06:09:03;9.00;92.60
49413;DHT22;35493;50.276;9.372;2024-02-04T06:11:36;8.90;92.60
49413;DHT22;35493;50.276;9.372;2024-02-04T06:14:09;9.00;92.60
49413;DHT22;35493;50.276;9.372;2024-02-04T06:16:43;8.90;92.60
49413;DHT22;35493;50.276;9.372;2024-02-04T06:19:17;8.90;92.60
49413;DHT22;35493;50.276;9.372;2024-02-04T06:21:50;8.90;92.70
49413;DHT22;35493;50.276;9.372;2024-02-04T06:24:23;8.90;92.70
49413;DHT22;35493;50.276;9.372;2024-02-04T06:26:56;8.90;92.70
49413;DHT22;35493;50.276;9.372;2024-02-04T06:29:23;8.90;92.70
49413;DHT22;35493;50.276;9.372;2024-02-04T06:31:57;9.00;92.60
49413;DHT22;35493;50.276;9.372;2024-02-04T06:34:31;8.90;92.60
49413;DHT22;35493;50.276;9.372;2024-02-04T06:37:04;8.90;92.60
49413;DHT22;35493;50.276;9.372;2024-02-04T06:39:37;8.90;92.60
49413;DHT22;35493;50.276;9.372;2024-02-04T06:42:10;8.90;92.70
49413;DHT22;35493;50.276;9.372;2024-02-04T06:44:43;8.90;92.70
49413;DHT22;35493;50.276;9.372;2024-02-04T06:47:19;8.90;92.70
49413;DHT22;35493;50.276;9.372;2024-02-04T06:49:52;8.90;92.70
49413;DHT22;35493;50.276;9.372;2024-02-04T06:52:25;8.90;92.70
49413;DHT22;35493;50.276;9.372;2024-02-04T06:54:58;8.90;92.70
49413;DHT22;35493;50.276;9.372;2024-02-04T06:57:31;8.90;92.70
49413;DHT22;35493;50.276;9.372;2024-02-04T07:00:05;8.90;92.70
49413;DHT22;35493;50.276;9.372;2024-02-04T07:02:40;8.90;92.70
49413;DHT22;35493;50.276;9.372;2024-02-04T07:05:07;8.90;92.80
49413;DHT22;35493;50.276;9.372;2024-02-04T07:07:42;8.90;92.80
49413;DHT22;35493;50.276;9.372;2024-02-04T07:10:16;8.90;92.70
49413;DHT22;35493;50.276;9.372;2024-02-04T07:12:50;8.90;92.80
49413;DHT22;35493;50.276;9.372;2024-02-04T07:15:23;8.90;92.80
49413;DHT22;35493;50.276;9.372;2024-02-04T07:17:57;8.90;92.90
49413;DHT22;35493;50.276;9.372;2024-02-04T07:20:31;8.90;92.90
49413;DHT22;35493;50.276;9.372;2024-02-04T07:23:04;8.90;93.00
49413;DHT22;35493;50.276;9.372;2024-02-04T07:25:37;8.90;92.90
49413;DHT22;35493;50.276;9.372;2024-02-04T07:28:10;8.90;92.90
49413;DHT22;35493;50.276;9.372;2024-02-04T07:30:43;8.90;92.90
49413;DHT22;35493;50.276;9.372;2024-02-04T07:33:17;8.90;92.90
49413;DHT22;35493;50.276;9.372;2024-02-04T07:35:51;8.90;92.90
49413;DHT22;35493;50.276;9.372;2024-02-04T07:38:24;8.90;92.80
49413;DHT22;35493;50.276;9.372;2024-02-04T07:40:57;9.00;92.80
49413;DHT22;35493;50.276;9.372;2024-02-04T07:43:31;8.90;92.80
49413;DHT22;35493;50.276;9.372;2024-02-04T07:46:04;9.00;92.80
49413;DHT22;35493;50.276;9.372;2024-02-04T07:48:40;8.90;92.80
49413;DHT22;35493;50.276;9.372;2024-02-04T07:51:13;8.90;92.80
49413;DHT22;35493;50.276;9.372;2024-02-04T07:53:46;8.90;92.90
49413;DHT22;35493;50.276;9.372;2024-02-04T07:56:13;9.00;92.80
49413;DHT22;35493;50.276;9.372;2024-02-04T07:58:46;8.90;92.90
49413;DHT22;35493;50.276;9.372;2024-02-04T08:01:19;8.90;92.90
49413;DHT22;35493;50.276;9.372;2024-02-04T08:03:54;8.90;92.90
49413;DHT22;35493;50.276;9.372;2024-02-04T08:06:27;9.00;93.00
49413;DHT22;35493;50.276;9.372;2024-02-04T08:09:00;9.00;93.00
49413;DHT22;35493;50.276;9.372;2024-02-04T08:11:33;9.00;93.00
49413;DHT22;35493;50.276;9.372;2024-02-04T08:14:06;9.00;93.00
49413;DHT22;35493;50.276;9.372;2024-02-04T08:16:39;8.90;93.00
49413;DHT22;35493;50.276;9.372;2024-02-04T08:19:09;9.00;92.90
49413;DHT22;35493;50.276;9.372;2024-02-04T08:21:42;9.00;92.90
49413;DHT22;35493;50.276;9.372;2024-02-04T08:24:15;9.00;92.90
49413;DHT22;35493;50.276;9.372;2024-02-04T08:26:48;9.00;92.90
49413;DHT22;35493;50.276;9.372;2024-02-04T08:29:15;9.00;92.90
49413;DHT22;35493;50.276;9.372;2024-02-04T08:31:48;9.10;92.90
49413;DHT22;35493;50.276;9.372;2024-02-04T08:34:22;9.00;92.90
49413;DHT22;35493;50.276;9.372;2024-02-04T08:36:57;9.00;92.90
49413;DHT22;35493;50.276;9.372;2024-02-04T08:39:30;9.10;92.90
49413;DHT22;35493;50.276;9.372;2024-02-04T08:45:07;9.10;92.90
49413;DHT22;35493;50.276;9.372;2024-02-04T08:47:41;9.00;92.90
49413;DHT22;35493;50.276;9.372;2024-02-04T08:50:16;9.10;92.90
49413;DHT22;35493;50.276;9.372;2024-02-04T08:52:49;9.10;92.90
49413;DHT22;35493;50.276;9.372;2024-02-04T08:55:22;9.10;92.90
49413;DHT22;35493;50.276;9.372;2024-02-04T08:57:55;9.10;92.90
49413;DHT22;35493;50.276;9.372;2024-02-04T09:00:28;9.10;92.90
49413;DHT22;35493;50.276;9.372;2024-02-04T09:03:01;9.10;93.00
49413;DHT22;35493;50.276;9.372;2024-02-04T09:05:30;9.10;93.00
49413;DHT22;35493;50.276;9.372;2024-02-04T09:08:04;9.10;93.00
49413;DHT22;35493;50.276;9.372;2024-02-04T09:10:37;9.10;92.90
49413;DHT22;35493;50.276;9.372;2024-02-04T09:13:10;9.10;93.00
49413;DHT22;35493;50.276;9.372;2024-02-04T09:15:43;9.10;93.00
49413;DHT22;35493;50.276;9.372;2024-02-04T09:18:16;9.20;92.90
49413;DHT22;35493;50.276;9.372;2024-02-04T09:20:51;9.10;92.90
49413;DHT22;35493;50.276;9.372;2024-02-04T09:23:24;9.10;92.90
49413;DHT22;35493;50.276;9.372;2024-02-04T09:25:57;9.10;92.90
49413;DHT22;35493;50.276;9.372;2024-02-04T09:28:30;9.10;92.80
49413;DHT22;35493;50.276;9.372;2024-02-04T09:31:03;9.20;92.80
49413;DHT22;35493;50.276;9.372;2024-02-04T09:33:36;9.20;92.80
49413;DHT22;35493;50.276;9.372;2024-02-04T09:36:14;9.20;92.80
49413;DHT22;35493;50.276;9.372;2024-02-04T09:38:47;9.20;92.70
49413;DHT22;35493;50.276;9.372;2024-02-04T09:41:20;9.20;92.70
49413;DHT22;35493;50.276;9.372;2024-02-04T09:43:54;9.20;92.70
49413;DHT22;35493;50.276;9.372;2024-02-04T09:46:28;9.20;92.70
49413;DHT22;35493;50.276;9.372;2024-02-04T09:49:02;9.20;92.70
49413;DHT22;35493;50.276;9.372;2024-02-04T09:51:39;9.20;92.70
49413;DHT22;35493;50.276;9.372;2024-02-04T09:54:12;9.20;92.70
49413;DHT22;35493;50.276;9.372;2024-02-04T09:56:40;9.20;92.60
49413;DHT22;35493;50.276;9.372;2024-02-04T09:59:14;9.20;92.60
49413;DHT22;35493;50.276;9.372;2024-02-04T10:01:47;9.30;92.60
49413;DHT22;35493;50.276;9.372;2024-02-04T10:04:20;9.20;92.70
49413;DHT22;35493;50.276;9.372;2024-02-04T10:06:55;9.30;92.70
49413;DHT22;35493;50.276;9.372;2024-02-04T10:09:28;9.20;92.70
49413;DHT22;35493;50.276;9.372;2024-02-04T10:12:04;9.20;92.70
49413;DHT22;35493;50.276;9.372;2024-02-04T10:14:37;9.20;92.70
49413;DHT22;35493;50.276;9.372;2024-02-04T10:17:10;9.20;92.70
49413;DHT22;35493;50.276;9.372;2024-02-04T10:19:46;9.20;92.70
49413;DHT22;35493;50.276;9.372;2024-02-04T10:22:21;9.30;92.70
49413;DHT22;35493;50.276;9.372;2024-02-04T10:24:47;9.20;92.70
49413;DHT22;35493;50.276;9.372;2024-02-04T10:27:20;9.30;92.70
49413;DHT22;35493;50.276;9.372;2024-02-04T10:29:53;9.30;92.70
49413;DHT22;35493;50.276;9.372;2024-02-04T10:32:26;9.30;92.70
49413;DHT22;35493;50.276;9.372;2024-02-04T10:34:59;9.30;92.70
49413;DHT22;35493;50.276;9.372;2024-02-04T10:37:35;9.40;92.60
49413;DHT22;35493;50.276;9.372;2024-02-04T10:40:08;9.30;92.60
49413;DHT22;35493;50.276;9.372;2024-02-04T10:42:43;9.40;92.60
49413;DHT22;35493;50.276;9.372;2024-02-04T10:45:17;9.40;92.60
49413;DHT22;35493;50.276;9.372;2024-02-04T10:47:52;9.40;92.60
49413;DHT22;35493;50.276;9.372;2024-02-04T10:50:28;9.40;92.60
49413;DHT22;35493;50.276;9.372;2024-02-04T10:53:05;9.40;92.60
49413;DHT22;35493;50.276;9.372;2024-02-04T10:55:40;9.40;92.60
49413;DHT22;35493;50.276;9.372;2024-02-04T10:58:14;9.40;92.60
49413;DHT22;35493;50.276;9.372;2024-02-04T11:00:48;9.50;92.50
49413;DHT22;35493;50.276;9.372;2024-02-04T11:03:22;9.50;92.50
49413;DHT22;35493;50.276;9.372;2024-02-04T11:05:59;9.50;92.50
49413;DHT22;35493;50.276;9.372;2024-02-04T11:08:34;9.50;92.50
49413;DHT22;35493;50.276;9.372;2024-02-04T11:11:07;9.50;92.50
49413;DHT22;35493;50.276;9.372;2024-02-04T11:13:34;9.50;92.50
49413;DHT22;35493;50.276;9.372;2024-02-04T11:16:11;9.50;92.60
49413;DHT22;35493;50.276;9.372;2024-02-04T11:18:52;9.50;92.60
49413;DHT22;35493;50.276;9.372;2024-02-04T11:21:34;9.60;92.50
49413;DHT22;35493;50.276;9.372;2024-02-04T11:24:18;9.60;92.50
49413;DHT22;35493;50.276;9.372;2024-02-04T11:26:54;9.60;92.50
49413;DHT22;35493;50.276;9.372;2024-02-04T11:29:28;9.60;92.50
49413;DHT22;35493;50.276;9.372;2024-02-04T11:31:56;9.60;92.50
49413;DHT22;35493;50.276;9.372;2024-02-04T11:34:29;9.60;92.50
49413;DHT22;35493;50.276;9.372;2024-02-04T11:37:13;9.70;92.50
49413;DHT22;35493;50.276;9.372;2024-02-04T11:39:51;9.70;92.60
49413;DHT22;35493;50.276;9.372;2024-02-04T11:42:24;9.70;92.60
49413;DHT22;35493;50.276;9.372;2024-02-04T11:45:06;9.70;92.50
49413;DHT22;35493;50.276;9.372;2024-02-04T11:47:46;9.70;92.50
49413;DHT22;35493;50.276;9.372;2024-02-04T11:50:25;9.70;92.50
49413;DHT22;35493;50.276;9.372;2024-02-04T11:53:02;9.70;92.50
49413;DHT22;35493;50.276;9.372;2024-02-04T11:55:40;9.80;92.50
49413;DHT22;35493;50.276;9.372;2024-02-04T11:58:13;9.80;92.50
49413;DHT22;35493;50.276;9.372;2024-02-04T12:00:46;9.90;92.50
49413;DHT22;35493;50.276;9.372;2024-02-04T12:03:28;9.90;92.50
49413;DHT22;35493;50.276;9.372;2024-02-04T12:06:02;9.90;92.50
49413;DHT22;35493;50.276;9.372;2024-02-04T12:08:35;9.90;92.60
49413;DHT22;35493;50.276;9.372;2024-02-04T12:11:10;9.90;92.50
49413;DHT22;35493;50.276;9.372;2024-02-04T12:13:43;9.90;92.50
49413;DHT22;35493;50.276;9.372;2024-02-04T12:16:16;9.90;92.40
49413;DHT22;35493;50.276;9.372;2024-02-04T12:18:49;9.90;92.30
49413;DHT22;35493;50.276;9.372;2024-02-04T12:21:22;10.00;92.30
49413;DHT22;35493;50.276;9.372;2024-02-04T12:23:55;9.90;92.20
49413;DHT22;35493;50.276;9.372;2024-02-04T12:26:30;10.00;92.20
49413;DHT22;35493;50.276;9.372;2024-02-04T12:29:03;10.00;92.10
49413;DHT22;35493;50.276;9.372;2024-02-04T12:31:36;10.10;92.10
49413;DHT22;35493;50.276;9.372;2024-02-04T12:34:03;10.10;92.10
49413;DHT22;35493;50.276;9.372;2024-02-04T12:36:36;10.10;92.10
49413;DHT22;35493;50.276;9.372;2024-02-04T12:39:09;10.10;92.10
49413;DHT22;35493;50.276;9.372;2024-02-04T12:41:50;10.10;92.20
49413;DHT22;35493;50.276;9.372;2024-02-04T12:44:24;10.00;92.20
49413;DHT22;35493;50.276;9.372;2024-02-04T12:46:57;10.00;92.30
49413;DHT22;35493;50.276;9.372;2024-02-04T12:49:30;10.00;92.40
49413;DHT22;35493;50.276;9.372;2024-02-04T12:52:04;10.00;92.30
49413;DHT22;35493;50.276;9.372;2024-02-04T12:54:41;10.00;92.30
49413;DHT22;35493;50.276;9.372;2024-02-04T12:57:22;10.00;92.30
49413;DHT22;35493;50.276;9.372;2024-02-04T13:00:03;10.00;92.30
49413;DHT22;35493;50.276;9.372;2024-02-04T13:02:38;10.00;92.30
49413;DHT22;35493;50.276;9.372;2024-02-04T13:05:21;10.00;92.30
49413;DHT22;35493;50.276;9.372;2024-02-04T13:07:55;10.00;92.30
49413;DHT22;35493;50.276;9.372;2024-02-04T13:10:29;10.00;92.30
49413;DHT22;35493;50.276;9.372;2024-02-04T13:13:05;10.10;92.20
49413;DHT22;35493;50.276;9.372;2024-02-04T13:15:39;10.10;92.20
49413;DHT22;35493;50.276;9.372;2024-02-04T13:18:12;10.10;92.10
49413;DHT22;35493;50.276;9.372;2024-02-04T13:20:47;10.10;92.10
49413;DHT22;35493;50.276;9.372;2024-02-04T13:23:20;10.10;92.10
49413;DHT22;35493;50.276;9.372;2024-02-04T13:25:53;10.10;92.00
49413;DHT22;35493;50.276;9.372;2024-02-04T13:28:28;10.00;92.00
49413;DHT22;35493;50.276;9.372;2024-02-04T13:31:01;10.10;92.00
49413;DHT22;35493;50.276;9.372;2024-02-04T13:33:35;10.10;92.00
49413;DHT22;35493;50.276;9.372;2024-02-04T13:36:08;10.10;92.10
49413;DHT22;35493;50.276;9.372;2024-02-04T13:38:41;10.10;92.20
49413;DHT22;35493;50.276;9.372;2024-02-04T13:41:14;10.10;92.20
49413;DHT22;35493;50.276;9.372;2024-02-04T13:43:42;10.10;92.30
49413;DHT22;35493;50.276;9.372;2024-02-04T13:46:16;10.10;92.20
49413;DHT22;35493;50.276;9.372;2024-02-04T13:48:49;10.10;92.20
49413;DHT22;35493;50.276;9.372;2024-02-04T13:51:22;10.10;92.20
49413;DHT22;35493;50.276;9.372;2024-02-04T13:53:55;10.10;92.20
49413;DHT22;35493;50.276;9.372;2024-02-04T13:56:28;10.10;92.10
49413;DHT22;35493;50.276;9.372;2024-02-04T13:59:04;10.10;92.10
49413;DHT22;35493;50.276;9.372;2024-02-04T14:01:37;10.10;92.10
49413;DHT22;35493;50.276;9.372;2024-02-04T14:04:10;10.10;92.10
49413;DHT22;35493;50.276;9.372;2024-02-04T14:06:43;10.10;92.10
49413;DHT22;35493;50.276;9.372;2024-02-04T14:09:31;10.10;92.20
49413;DHT22;35493;50.276;9.372;2024-02-04T14:12:05;10.00;92.20
49413;DHT22;35493;50.276;9.372;2024-02-04T14:14:46;10.00;92.30
49413;DHT22;35493;50.276;9.372;2024-02-04T14:17:19;10.10;92.30
49413;DHT22;35493;50.276;9.372;2024-02-04T14:19:52;10.10;92.20
49413;DHT22;35493;50.276;9.372;2024-02-04T14:22:25;10.10;92.10
49413;DHT22;35493;50.276;9.372;2024-02-04T14:24:59;10.10;92.10
49413;DHT22;35493;50.276;9.372;2024-02-04T14:27:32;10.10;92.10
49413;DHT22;35493;50.276;9.372;2024-02-04T14:30:08;10.10;92.10
49413;DHT22;35493;50.276;9.372;2024-02-04T14:32:41;10.00;92.20
49413;DHT22;35493;50.276;9.372;2024-02-04T14:35:14;10.00;92.20
49413;DHT22;35493;50.276;9.372;2024-02-04T14:37:47;10.10;92.10
49413;DHT22;35493;50.276;9.372;2024-02-04T14:40:20;10.10;92.00
49413;DHT22;35493;50.276;9.372;2024-02-04T14:42:53;10.10;92.00
49413;DHT22;35493;50.276;9.372;2024-02-04T14:45:28;10.10;91.90
49413;DHT22;35493;50.276;9.372;2024-02-04T14:48:00;10.10;91.80
49413;DHT22;35493;50.276;9.372;2024-02-04T14:50:34;10.10;91.80
49413;DHT22;35493;50.276;9.372;2024-02-04T14:53:01;10.10;91.80
49413;DHT22;35493;50.276;9.372;2024-02-04T14:55:34;10.10;91.80
49413;DHT22;35493;50.276;9.372;2024-02-04T14:58:07;10.10;91.70
49413;DHT22;35493;50.276;9.372;2024-02-04T15:00:42;10.10;91.60
49413;DHT22;35493;50.276;9.372;2024-02-04T15:03:15;10.10;91.60
49413;DHT22;35493;50.276;9.372;2024-02-04T15:05:48;10.10;91.50
49413;DHT22;35493;50.276;9.372;2024-02-04T15:08:21;10.10;91.60
49413;DHT22;35493;50.276;9.372;2024-02-04T15:10:54;10.10;91.50
49413;DHT22;35493;50.276;9.372;2024-02-04T15:13:28;10.10;91.50
49413;DHT22;35493;50.276;9.372;2024-02-04T15:16:02;10.10;91.40
49413;DHT22;35493;50.276;9.372;2024-02-04T15:18:36;10.10;91.40
49413;DHT22;35493;50.276;9.372;2024-02-04T15:21:15;10.10;91.40
49413;DHT22;35493;50.276;9.372;2024-02-04T15:23:49;10.10;91.50
49413;DHT22;35493;50.276;9.372;2024-02-04T15:26:21;10.10;91.50
49413;DHT22;35493;50.276;9.372;2024-02-04T15:28:56;10.10;91.50
49413;DHT22;35493;50.276;9.372;2024-02-04T15:31:32;10.10;91.50
49413;DHT22;35493;50.276;9.372;2024-02-04T15:34:07;10.10;91.60
49413;DHT22;35493;50.276;9.372;2024-02-04T15:36:39;10.10;91.60
49413;DHT22;35493;50.276;9.372;2024-02-04T15:39:12;10.10;91.70
49413;DHT22;35493;50.276;9.372;2024-02-04T15:41:46;10.00;91.70
49413;DHT22;35493;50.276;9.372;2024-02-04T15:44:19;10.00;91.70
49413;DHT22;35493;50.276;9.372;2024-02-04T15:46:55;10.00;91.70
49413;DHT22;35493;50.276;9.372;2024-02-04T15:49:28;10.00;91.70
49413;DHT22;35493;50.276;9.372;2024-02-04T15:52:02;10.00;91.80
49413;DHT22;35493;50.276;9.372;2024-02-04T15:54:28;10.00;91.70
49413;DHT22;35493;50.276;9.372;2024-02-04T15:57:02;10.00;91.70
49413;DHT22;35493;50.276;9.372;2024-02-04T15:59:31;10.00;91.70
49413;DHT22;35493;50.276;9.372;2024-02-04T16:02:08;10.00;91.70
49413;DHT22;35493;50.276;9.372;2024-02-04T16:04:36;10.00;91.70
49413;DHT22;35493;50.276;9.372;2024-02-04T16:07:08;10.00;91.70
49413;DHT22;35493;50.276;9.372;2024-02-04T16:09:43;9.90;91.70
49413;DHT22;35493;50.276;9.372;2024-02-04T16:12:20;10.00;91.70
49413;DHT22;35493;50.276;9.372;2024-02-04T16:14:53;10.00;91.70
49413;DHT22;35493;50.276;9.372;2024-02-04T16:17:31;10.00;91.70
49413;DHT22;35493;50.276;9.372;2024-02-04T16:20:05;10.00;91.70
49413;DHT22;35493;50.276;9.372;2024-02-04T16:22:38;9.90;91.60
49413;DHT22;35493;50.276;9.372;2024-02-04T16:25:12;10.00;91.60